Time;durP1;ratioP1;P1;durP2;ratioP2;P2;SDS_P1;SDS_P2;PMS_P1;PMS_P2;Temp;Humidity;BMP_temperature;BMP_pressure;BME280_temperature;BME280_humidity;BME280_pressure;Samples;Min_cycle;Max_cycle;Signal;HPM_P1;HPM_P2
2022/10/04 00:02:03;;;;;;;10.13;5.40;;;;;;;;;;4979860;28;20076;-61
2022/10/04 00:04:31;;;;;;;10.55;5.30;;;;;;;;;;4981466;28;20050;-62
2022/10/04 00:07:03;;;;;;;7.68;5.18;;;;;;;;;;4980639;28;20109;-63
2022/10/04 00:09:44;;;;;;;13.82;5.40;;;;;;;;;;4982401;28;20093;-63
2022/10/04 00:12:23;;;;;;;9.80;6.00;;;;;;;;;;4977831;28;20087;-62
2022/10/04 00:14:49;;;;;;;9.57;5.00;;;;;;;;;;4981318;28;20516;-63
2022/10/04 00:17:25;;;;;;;9.57;5.35;;;;;;;;;;4965435;28;20058;-63
2022/10/04 00:19:53;;;;;;;10.57;5.22;;;;;;;;;;4975896;28;20482;-63
2022/10/04 00:22:29;;;;;;;10.40;5.63;;;;;;;;;;4985175;28;20052;-62
2022/10/04 00:25:17;;;;;;;11.25;5.78;;;;;;;;;;4980256;28;20125;-66
2022/10/04 00:28:19;;;;;;;8.95;5.47;;;;;;;;;;4984169;28;20521;-63
2022/10/04 00:31:05;;;;;;;11.25;5.75;;;;;;;;;;4983324;28;20125;-63
2022/10/04 00:34:02;;;;;;;13.60;5.15;;;;;;;;;;4981415;28;20050;-61
2022/10/04 00:36:38;;;;;;;8.15;4.80;;;;;;;;;;4952154;28;20164;-64
2022/10/04 00:39:14;;;;;;;11.70;5.30;;;;;;;;;;4980736;28;20162;-63
2022/10/04 00:41:46;;;;;;;8.65;5.07;;;;;;;;;;4979929;28;20041;-63
2022/10/04 00:44:21;;;;;;;11.10;5.50;;;;;;;;;;4984544;28;20069;-62
2022/10/04 00:46:48;;;;;;;12.70;5.72;;;;;;;;;;4965504;28;20549;-63
2022/10/04 00:49:17;;;;;;;8.85;5.97;;;;;;;;;;4985079;28;20047;-64
2022/10/04 00:51:48;;;;;;;12.07;6.28;;;;;;;;;;4983199;28;20119;-63
2022/10/04 00:54:29;;;;;;;18.50;6.95;;;;;;;;;;4980934;28;20057;-63
2022/10/04 00:57:01;;;;;;;11.30;6.30;;;;;;;;;;4979460;28;20042;-65
2022/10/04 00:59:27;;;;;;;9.40;5.73;;;;;;;;;;4983526;28;20089;-64
2022/10/04 01:02:02;;;;;;;11.38;5.72;;;;;;;;;;4962606;28;20034;-64
2022/10/04 01:04:39;;;;;;;11.48;5.60;;;;;;;;;;4980899;28;20105;-64
2022/10/04 01:07:06;;;;;;;9.60;5.30;;;;;;;;;;4980089;28;20042;-68
2022/10/04 01:09:36;;;;;;;10.77;5.85;;;;;;;;;;4981591;28;20047;-68
2022/10/04 01:12:16;;;;;;;17.35;6.07;;;;;;;;;;4978937;28;20050;-69
2022/10/04 01:14:54;;;;;;;23.13;6.10;;;;;;;;;;4960918;28;20929;-68
2022/10/04 01:17:20;;;;;;;15.00;6.57;;;;;;;;;;4979712;28;20042;-68
2022/10/04 01:19:53;;;;;;;41.15;6.13;;;;;;;;;;4979619;28;20406;-68
2022/10/04 01:22:32;;;;;;;22.92;5.70;;;;;;;;;;4967988;28;20046;-67
2022/10/04 01:24:58;;;;;;;21.88;5.38;;;;;;;;;;4980544;28;20054;-67
2022/10/04 01:27:31;;;;;;;32.53;5.95;;;;;;;;;;4983246;28;20140;-68
2022/10/04 01:29:57;;;;;;;11.48;5.47;;;;;;;;;;4990921;28;20046;-68
2022/10/04 01:32:23;;;;;;;9.07;5.72;;;;;;;;;;4988015;28;20073;-67
2022/10/04 01:34:49;;;;;;;10.18;6.60;;;;;;;;;;4981597;28;20046;-67
2022/10/04 01:37:14;;;;;;;11.75;6.10;;;;;;;;;;4986395;28;20144;-67
2022/10/04 01:39:40;;;;;;;15.57;6.00;;;;;;;;;;4985534;28;20057;-67
2022/10/04 01:42:14;;;;;;;28.83;5.50;;;;;;;;;;4986065;28;20053;-67
2022/10/04 01:45:04;;;;;;;9.98;5.75;;;;;;;;;;4988679;28;20042;-67
2022/10/04 01:47:33;;;;;;;7.40;5.40;;;;;;;;;;4986017;28;20043;-67
2022/10/04 01:50:05;;;;;;;13.82;5.75;;;;;;;;;;4972445;28;20030;-67
2022/10/04 01:52:54;;;;;;;12.95;6.45;;;;;;;;;;4992565;28;20078;-67
2022/10/04 01:55:27;;;;;;;9.50;5.40;;;;;;;;;;4989308;28;20389;-67
2022/10/04 01:58:08;;;;;;;11.38;4.82;;;;;;;;;;4982750;28;20515;-67
2022/10/04 02:00:36;;;;;;;12.05;4.50;;;;;;;;;;4986524;28;20168;-67
2022/10/04 02:03:16;;;;;;;8.63;4.68;;;;;;;;;;4979953;28;20565;-67
2022/10/04 02:05:48;;;;;;;39.78;5.57;;;;;;;;;;4983027;28;20126;-67
2022/10/04 02:08:17;;;;;;;44.63;5.35;;;;;;;;;;4983691;28;20031;-67
2022/10/04 02:10:44;;;;;;;45.60;5.18;;;;;;;;;;4985857;28;20072;-68
2022/10/04 02:13:17;;;;;;;39.30;5.60;;;;;;;;;;4987331;28;20043;-68
2022/10/04 02:15:44;;;;;;;51.47;5.90;;;;;;;;;;4984750;28;20045;-64
2022/10/04 02:18:17;;;;;;;88.18;5.82;;;;;;;;;;4985926;28;20049;-64
2022/10/04 02:20:43;;;;;;;127.10;7.35;;;;;;;;;;4986998;28;20037;-66
2022/10/04 02:23:10;;;;;;;57.00;6.40;;;;;;;;;;4983113;28;20030;-64
2022/10/04 02:25:37;;;;;;;88.53;6.78;;;;;;;;;;4962805;28;20213;-63
2022/10/04 02:28:04;;;;;;;85.47;7.03;;;;;;;;;;4983764;28;20112;-65
2022/10/04 02:30:38;;;;;;;81.68;6.60;;;;;;;;;;4990948;28;20062;-63
2022/10/04 02:33:04;;;;;;;130.57;7.05;;;;;;;;;;4986299;28;20054;-63
2022/10/04 02:35:43;;;;;;;223.27;7.55;;;;;;;;;;4984677;28;20089;-62
2022/10/04 02:38:22;;;;;;;251.02;8.63;;;;;;;;;;4987807;28;20046;-62
2022/10/04 02:40:59;;;;;;;30.70;4.78;;;;;;;;;;4988445;28;20035;-61
2022/10/04 02:43:32;;;;;;;114.72;6.38;;;;;;;;;;4983133;28;20109;-63
2022/10/04 02:46:08;;;;;;;49.20;5.57;;;;;;;;;;4970332;28;20144;-62
2022/10/04 02:48:43;;;;;;;101.30;5.10;;;;;;;;;;4983650;28;20173;-64
2022/10/04 02:51:38;;;;;;;157.20;6.03;;;;;;;;;;4981472;28;20190;-63
2022/10/04 02:54:26;;;;;;;17.30;5.07;;;;;;;;;;4980399;28;20050;-64
2022/10/04 02:56:53;;;;;;;44.88;4.70;;;;;;;;;;4988462;28;20073;-64
2022/10/04 02:59:18;;;;;;;49.35;5.18;;;;;;;;;;4982179;28;20034;-64
2022/10/04 03:01:47;;;;;;;33.47;5.00;;;;;;;;;;4981580;28;20505;-64
2022/10/04 03:04:13;;;;;;;86.07;5.47;;;;;;;;;;4985119;28;21100;-63
2022/10/04 03:06:40;;;;;;;51.60;5.10;;;;;;;;;;4984826;28;20052;-64
2022/10/04 03:09:06;;;;;;;26.48;4.88;;;;;;;;;;4979015;28;20112;-64
2022/10/04 03:11:39;;;;;;;13.45;5.20;;;;;;;;;;4983908;28;20441;-62
2022/10/04 03:14:12;;;;;;;41.40;5.53;;;;;;;;;;4986394;28;20033;-65
2022/10/04 03:16:38;;;;;;;;;;;;;;;;;;4984755;28;20049;-61
2022/10/04 03:19:05;;;;;;;5.65;4.60;;;;;;;;;;4984307;28;19925;-64
2022/10/04 03:21:32;;;;;;;10.48;4.43;;;;;;;;;;4986055;28;20050;-61
2022/10/04 03:23:59;;;;;;;8.55;4.28;;;;;;;;;;4983198;28;20051;-64
2022/10/04 03:26:31;;;;;;;6.20;4.10;;;;;;;;;;4967937;28;20462;-63
2022/10/04 03:28:57;;;;;;;9.43;5.20;;;;;;;;;;4981033;28;20181;-63
2022/10/04 03:31:26;;;;;;;13.00;4.15;;;;;;;;;;4983254;28;20084;-64
2022/10/04 03:33:54;;;;;;;5.35;4.25;;;;;;;;;;4979652;28;20141;-62
2022/10/04 03:36:22;;;;;;;5.13;4.25;;;;;;;;;;4983259;28;20730;-63
2022/10/04 03:38:51;;;;;;;4.55;3.85;;;;;;;;;;4992659;28;20050;-64
2022/10/04 03:41:17;;;;;;;7.07;4.55;;;;;;;;;;4990927;28;20030;-63
2022/10/04 03:43:49;;;;;;;6.20;4.60;;;;;;;;;;4988477;28;20128;-63
2022/10/04 03:46:15;;;;;;;6.18;4.15;;;;;;;;;;4990749;28;20042;-63
2022/10/04 03:48:51;;;;;;;5.88;4.50;;;;;;;;;;4988155;28;20481;-63
2022/10/04 03:51:20;;;;;;;14.45;4.25;;;;;;;;;;4986691;28;20148;-65
2022/10/04 03:53:48;;;;;;;5.55;4.65;;;;;;;;;;4987828;28;20046;-63
2022/10/04 03:56:21;;;;;;;8.88;4.55;;;;;;;;;;4985009;28;20045;-63
2022/10/04 03:58:49;;;;;;;7.70;4.65;;;;;;;;;;4989187;28;20374;-62
2022/10/04 04:01:40;;;;;;;11.90;5.30;;;;;;;;;;4984226;28;20446;-62
2022/10/04 04:04:24;;;;;;;7.47;4.57;;;;;;;;;;4989648;28;20073;-62
2022/10/04 04:07:02;;;;;;;13.80;4.10;;;;;;;;;;4987544;28;21387;-62
2022/10/04 04:09:49;;;;;;;18.92;4.35;;;;;;;;;;4981621;28;20044;-62
2022/10/04 04:12:24;;;;;;;8.20;4.88;;;;;;;;;;4983001;28;20096;-63
2022/10/04 04:14:51;;;;;;;18.35;5.10;;;;;;;;;;4980889;28;20129;-62
2022/10/04 04:17:26;;;;;;;8.15;4.75;;;;;;;;;;4980442;28;20713;-62
2022/10/04 04:19:53;;;;;;;12.65;4.65;;;;;;;;;;4980560;28;20084;-62
2022/10/04 04:22:19;;;;;;;10.60;4.60;;;;;;;;;;4983799;28;20137;-62
2022/10/04 04:24:46;;;;;;;8.25;4.85;;;;;;;;;;4983010;28;20094;-62
2022/10/04 04:27:15;;;;;;;8.07;4.60;;;;;;;;;;4979883;28;20081;-62
2022/10/04 04:29:48;;;;;;;6.40;4.78;;;;;;;;;;4981489;28;20034;-63
2022/10/04 04:32:18;;;;;;;5.63;4.82;;;;;;;;;;4984638;28;20174;-63
2022/10/04 04:34:59;;;;;;;8.05;5.10;;;;;;;;;;4984300;28;20253;-62
2022/10/04 04:37:25;;;;;;;7.40;4.60;;;;;;;;;;4981854;28;20047;-62
2022/10/04 04:39:54;;;;;;;5.90;4.13;;;;;;;;;;4981650;28;20588;-63
2022/10/04 04:42:34;;;;;;;8.50;4.38;;;;;;;;;;4985960;28;20054;-62
2022/10/04 04:45:14;;;;;;;9.13;4.13;;;;;;;;;;4983320;28;20064;-63
2022/10/04 04:47:52;;;;;;;9.07;4.57;;;;;;;;;;4981150;28;20035;-62
2022/10/04 04:50:21;;;;;;;9.80;4.25;;;;;;;;;;4978897;28;20056;-62
2022/10/04 04:52:50;;;;;;;8.10;4.72;;;;;;;;;;4983019;28;20137;-64
2022/10/04 04:55:18;;;;;;;15.20;4.53;;;;;;;;;;4982335;28;20074;-63
2022/10/04 04:57:45;;;;;;;32.03;5.70;;;;;;;;;;4985586;28;20126;-63
2022/10/04 05:00:24;;;;;;;27.17;4.97;;;;;;;;;;4983295;28;20061;-63
2022/10/04 05:02:55;;;;;;;43.97;5.50;;;;;;;;;;4978731;28;20482;-63
2022/10/04 05:05:25;;;;;;;29.63;4.85;;;;;;;;;;4985593;28;20104;-67
2022/10/04 05:08:09;;;;;;;78.50;5.65;;;;;;;;;;4983568;28;20145;-66
2022/10/04 05:10:35;;;;;;;51.17;5.20;;;;;;;;;;4983810;28;20210;-66
2022/10/04 05:13:03;;;;;;;28.42;4.90;;;;;;;;;;4977009;28;20573;-66
2022/10/04 05:15:33;;;;;;;81.55;5.95;;;;;;;;;;4980601;28;20066;-66
2022/10/04 05:18:00;;;;;;;20.33;4.95;;;;;;;;;;4981687;28;20063;-66
2022/10/04 05:20:26;;;;;;;33.00;5.68;;;;;;;;;;4986171;28;20041;-67
2022/10/04 05:22:52;;;;;;;65.25;5.85;;;;;;;;;;4980772;28;20061;-66
2022/10/04 05:25:36;;;;;;;37.95;5.65;;;;;;;;;;4987310;28;20051;-66
2022/10/04 05:28:01;;;;;;;23.38;5.00;;;;;;;;;;4979353;28;20682;-62
2022/10/04 05:30:52;;;;;;;102.82;6.13;;;;;;;;;;4977954;28;20409;-63
2022/10/04 05:33:35;;;;;;;62.00;5.40;;;;;;;;;;4981570;28;20833;-61
2022/10/04 05:36:09;;;;;;;41.92;6.47;;;;;;;;;;4963445;28;20046;-62
2022/10/04 05:38:44;;;;;;;47.85;5.85;;;;;;;;;;4985447;28;20109;-61
2022/10/04 05:41:30;;;;;;;18.77;4.35;;;;;;;;;;4988334;28;20366;-66
2022/10/04 05:43:56;;;;;;;15.98;4.30;;;;;;;;;;4982848;28;20104;-62
2022/10/04 05:46:29;;;;;;;54.45;5.13;;;;;;;;;;4982416;28;20405;-63
2022/10/04 05:48:57;;;;;;;;;;;;;;;;;;4980902;28;20050;-60
2022/10/04 05:51:28;;;;;;;18.90;4.95;;;;;;;;;;4979067;28;19956;-62
2022/10/04 05:53:58;;;;;;;12.07;4.78;;;;;;;;;;4975166;28;20115;-61
2022/10/04 05:56:30;;;;;;;25.52;5.38;;;;;;;;;;4984318;28;20034;-63
2022/10/04 05:59:10;;;;;;;6.85;4.90;;;;;;;;;;4980142;28;20124;-64
2022/10/04 06:01:49;;;;;;;12.25;5.28;;;;;;;;;;4981325;28;20050;-63
2022/10/04 06:04:33;;;;;;;9.65;4.72;;;;;;;;;;4978344;28;20039;-63
2022/10/04 06:07:25;;;;;;;7.57;4.70;;;;;;;;;;4962039;28;20054;-61
2022/10/04 06:10:04;;;;;;;7.13;4.82;;;;;;;;;;4968775;28;20509;-62
2022/10/04 06:12:58;;;;;;;11.65;5.25;;;;;;;;;;4978883;28;20061;-64
2022/10/04 06:15:51;;;;;;;11.90;5.05;;;;;;;;;;4974607;28;20055;-64
2022/10/04 06:18:32;;;;;;;9.35;5.07;;;;;;;;;;4979479;28;20073;-64
2022/10/04 06:21:03;;;;;;;15.30;5.72;;;;;;;;;;4981792;28;20085;-64
2022/10/04 06:23:31;;;;;;;7.18;5.18;;;;;;;;;;4980563;28;20184;-64
2022/10/04 06:26:17;;;;;;;7.80;4.97;;;;;;;;;;4981388;28;20105;-64
2022/10/04 06:28:47;;;;;;;6.13;4.80;;;;;;;;;;4965088;28;20042;-65
2022/10/04 06:31:24;;;;;;;8.60;4.93;;;;;;;;;;4980419;28;20125;-64
2022/10/04 06:34:05;;;;;;;10.90;5.55;;;;;;;;;;4977741;28;20138;-64
2022/10/04 06:36:56;;;;;;;17.75;5.72;;;;;;;;;;4980748;28;20058;-63
2022/10/04 06:39:25;;;;;;;10.15;5.38;;;;;;;;;;4979714;28;20524;-64
2022/10/04 06:42:10;;;;;;;6.85;4.80;;;;;;;;;;4979899;28;20052;-63
2022/10/04 06:45:20;;;;;;;7.28;4.60;;;;;;;;;;4979543;28;20034;-63
2022/10/04 06:48:19;;;;;;;6.88;4.75;;;;;;;;;;4954368;28;20096;-64
2022/10/04 06:50:54;;;;;;;6.18;4.78;;;;;;;;;;4963863;28;20030;-63
2022/10/04 06:53:47;;;;;;;6.18;4.80;;;;;;;;;;4980200;28;20109;-64
2022/10/04 06:56:31;;;;;;;9.30;4.47;;;;;;;;;;4975091;28;20145;-63
2022/10/04 06:59:16;;;;;;;21.13;5.15;;;;;;;;;;4977557;28;20053;-64
2022/10/04 07:02:16;;;;;;;4.57;3.97;;;;;;;;;;4978671;28;20035;-64
2022/10/04 07:04:50;;;;;;;5.53;3.88;;;;;;;;;;4930932;28;20043;-65
2022/10/04 07:07:34;;;;;;;7.68;4.07;;;;;;;;;;4974461;28;20042;-67
2022/10/04 07:10:33;;;;;;;6.88;4.60;;;;;;;;;;4980917;28;20046;-67
2022/10/04 07:13:02;;;;;;;11.45;5.25;;;;;;;;;;4986299;28;20042;-67
2022/10/04 07:15:33;;;;;;;8.77;5.90;;;;;;;;;;4987952;28;20513;-66
2022/10/04 07:18:06;;;;;;;8.95;5.07;;;;;;;;;;4988719;28;20734;-66
2022/10/04 07:20:34;;;;;;;26.23;5.85;;;;;;;;;;4999027;28;20062;-66
2022/10/04 07:23:21;;;;;;;14.07;6.18;;;;;;;;;;4990497;28;20127;-66
2022/10/04 07:25:54;;;;;;;18.20;6.07;;;;;;;;;;4990451;28;20042;-66
2022/10/04 07:31:24;;;;;;;14.23;6.20;;;;;;;;;;4992117;28;20050;-66
2022/10/04 07:33:58;;;;;;;11.00;6.65;;;;;;;;;;4990487;28;20083;-65
2022/10/04 07:36:44;;;;;;;;;;;;;;;;;;4993337;28;20070;-67
2022/10/04 07:39:14;;;;;;;10.25;6.38;;;;;;;;;;4990739;28;19928;-66
2022/10/04 07:41:45;;;;;;;20.98;6.63;;;;;;;;;;4997177;28;20034;-65
2022/10/04 07:44:21;;;;;;;11.05;6.68;;;;;;;;;;4990026;28;20065;-66
2022/10/04 07:46:55;;;;;;;13.73;6.55;;;;;;;;;;4990705;28;20054;-66
2022/10/04 07:49:21;;;;;;;;;;;;;;;;;;4992942;28;20058;-68
2022/10/04 07:52:11;;;;;;;10.57;6.07;;;;;;;;;;4988566;28;19918;-65
2022/10/04 07:54:45;;;;;;;10.77;5.68;;;;;;;;;;4995197;28;20185;-65
2022/10/04 07:57:10;;;;;;;;;;;;;;;;;;4975677;28;20038;-66
2022/10/04 07:59:57;;;;;;;22.53;6.40;;;;;;;;;;4997778;28;19917;-67
2022/10/04 08:02:31;;;;;;;16.75;6.50;;;;;;;;;;4991535;28;20272;-66
2022/10/04 08:05:08;;;;;;;13.52;6.35;;;;;;;;;;4988969;28;20160;-67
2022/10/04 08:07:55;;;;;;;16.05;6.47;;;;;;;;;;4991073;28;20077;-65
2022/10/04 08:10:38;;;;;;;12.15;6.43;;;;;;;;;;4991521;28;20057;-67
2022/10/04 08:13:32;;;;;;;12.30;6.55;;;;;;;;;;4988615;28;20713;-67
2022/10/04 08:16:03;;;;;;;14.05;7.28;;;;;;;;;;4988693;28;20042;-67
2022/10/04 08:18:28;;;;;;;22.77;7.40;;;;;;;;;;4991742;28;20055;-67
2022/10/04 08:21:09;;;;;;;11.68;7.30;;;;;;;;;;4991986;28;20054;-67
2022/10/04 08:23:40;;;;;;;15.88;7.55;;;;;;;;;;4986018;28;20034;-67
2022/10/04 08:26:11;;;;;;;17.83;8.18;;;;;;;;;;4985290;28;20072;-68
2022/10/04 08:32:19;;;;;;;14.90;8.60;;;;;;;;;;4984840;28;20057;-67
2022/10/04 08:35:10;;;;;;;19.08;9.80;;;;;;;;;;4946386;28;20047;-65
2022/10/04 08:37:52;;;;;;;17.90;9.45;;;;;;;;;;4972430;28;20042;-66
2022/10/04 08:40:38;;;;;;;20.77;11.13;;;;;;;;;;4995374;28;20055;-65
2022/10/04 08:43:29;;;;;;;16.83;10.30;;;;;;;;;;4983841;28;20057;-68
2022/10/04 08:45:55;;;;;;;20.48;10.52;;;;;;;;;;4977678;28;20038;-68
2022/10/04 08:48:29;;;;;;;20.45;10.45;;;;;;;;;;4982134;28;20050;-67
2022/10/04 08:51:07;;;;;;;18.52;11.13;;;;;;;;;;4989264;28;20058;-68
2022/10/04 08:53:50;;;;;;;27.33;14.82;;;;;;;;;;4983000;28;20042;-68
2022/10/04 08:56:25;;;;;;;30.10;14.85;;;;;;;;;;4989945;28;20069;-69
2022/10/04 08:59:06;;;;;;;32.40;16.20;;;;;;;;;;4985128;28;20042;-68
2022/10/04 09:02:05;;;;;;;32.72;16.23;;;;;;;;;;4984652;28;20057;-68
2022/10/04 09:04:51;;;;;;;35.53;18.08;;;;;;;;;;4987639;28;20536;-68
2022/10/04 09:07:19;;;;;;;48.67;18.17;;;;;;;;;;4986253;28;20049;-68
2022/10/04 09:10:06;;;;;;;39.90;19.83;;;;;;;;;;4985955;28;20053;-68
2022/10/04 09:12:43;;;;;;;41.60;20.20;;;;;;;;;;4987094;28;20058;-67
2022/10/04 09:15:41;;;;;;;41.13;20.67;;;;;;;;;;4983652;28;20460;-60
2022/10/04 09:18:19;;;;;;;42.83;20.30;;;;;;;;;;4981272;28;20046;-67
2022/10/04 09:21:16;;;;;;;45.97;19.17;;;;;;;;;;4981128;28;20026;-62
2022/10/04 09:23:44;;;;;;;38.13;20.88;;;;;;;;;;4979552;28;20038;-63
2022/10/04 09:26:39;;;;;;;47.80;20.85;;;;;;;;;;4986228;28;20031;-62
2022/10/04 09:29:10;;;;;;;42.30;20.80;;;;;;;;;;4982848;28;20054;-63
2022/10/04 09:31:57;;;;;;;44.47;21.63;;;;;;;;;;4980223;28;20065;-63
2022/10/04 09:34:56;;;;;;;38.38;19.90;;;;;;;;;;4983844;28;20501;-63
2022/10/04 09:37:47;;;;;;;39.47;18.95;;;;;;;;;;4983240;28;20054;-63
2022/10/04 09:40:27;;;;;;;45.28;19.17;;;;;;;;;;4985650;28;20064;-64
2022/10/04 09:43:20;;;;;;;39.65;18.00;;;;;;;;;;4967912;28;20042;-62
2022/10/04 09:46:15;;;;;;;33.63;15.57;;;;;;;;;;4982581;28;20494;-63
2022/10/04 09:49:12;;;;;;;33.88;16.25;;;;;;;;;;4978047;28;20049;-62
2022/10/04 09:51:56;;;;;;;32.70;17.65;;;;;;;;;;4983415;28;20388;-64
2022/10/04 09:54:53;;;;;;;38.83;19.48;;;;;;;;;;4985538;28;20054;-63
2022/10/04 09:57:31;;;;;;;46.65;20.70;;;;;;;;;;4982739;28;20038;-62
2022/10/04 10:00:01;;;;;;;37.08;19.58;;;;;;;;;;4985628;28;20046;-62
2022/10/04 10:02:39;;;;;;;43.53;20.17;;;;;;;;;;4980086;28;20146;-63
2022/10/04 10:05:21;;;;;;;36.95;18.02;;;;;;;;;;4986130;28;20026;-63
2022/10/04 10:08:11;;;;;;;33.97;17.02;;;;;;;;;;4981047;28;20046;-65
2022/10/04 10:14:05;;;;;;;18.45;12.13;;;;;;;;;;4982177;28;20053;-65
2022/10/04 10:16:53;;;;;;;22.45;11.68;;;;;;;;;;4983729;28;20147;-63
2022/10/04 10:19:30;;;;;;;18.60;11.85;;;;;;;;;;4982061;28;20055;-63
2022/10/04 10:22:27;;;;;;;20.08;12.15;;;;;;;;;;4985518;28;20141;-65
2022/10/04 10:25:11;;;;;;;22.55;12.38;;;;;;;;;;4981438;28;20050;-63
2022/10/04 10:27:36;;;;;;;24.45;11.85;;;;;;;;;;4987893;28;20054;-68
2022/10/04 10:30:23;;;;;;;22.65;11.60;;;;;;;;;;4976803;28;20050;-68
2022/10/04 10:33:00;;;;;;;19.45;11.80;;;;;;;;;;4979666;28;20046;-65
2022/10/04 10:35:32;;;;;;;19.95;11.10;;;;;;;;;;4983864;28;20047;-68
2022/10/04 10:38:19;;;;;;;16.17;10.02;;;;;;;;;;4981453;28;20446;-68
2022/10/04 10:41:06;;;;;;;18.48;10.23;;;;;;;;;;4979617;28;20093;-67
2022/10/04 10:44:09;;;;;;;15.65;10.05;;;;;;;;;;4985142;28;21275;-70
2022/10/04 10:47:02;;;;;;;18.73;10.55;;;;;;;;;;4979203;28;20081;-70
2022/10/04 10:50:03;;;;;;;14.40;9.43;;;;;;;;;;4956963;28;20046;-70
2022/10/04 10:52:54;;;;;;;19.48;9.32;;;;;;;;;;4985011;28;20065;-68
2022/10/04 10:55:58;;;;;;;20.23;9.02;;;;;;;;;;4986135;28;20133;-68
2022/10/04 10:58:33;;;;;;;20.73;9.02;;;;;;;;;;4982166;28;20117;-68
2022/10/04 11:01:01;;;;;;;15.95;8.25;;;;;;;;;;4985637;28;20456;-68
2022/10/04 11:03:35;;;;;;;14.15;8.50;;;;;;;;;;4985631;28;20046;-68
2022/10/04 11:06:07;;;;;;;20.45;8.50;;;;;;;;;;4980780;28;20050;-66
2022/10/04 11:09:06;;;;;;;14.05;7.45;;;;;;;;;;4986062;28;20062;-66
2022/10/04 11:11:54;;;;;;;15.10;7.85;;;;;;;;;;4986493;28;21015;-68
2022/10/04 11:14:49;;;;;;;14.95;6.97;;;;;;;;;;4983216;28;20042;-68
2022/10/04 11:17:28;;;;;;;13.02;5.72;;;;;;;;;;4984638;28;20053;-68
2022/10/04 11:20:01;;;;;;;12.75;6.07;;;;;;;;;;4986815;28;20065;-68
2022/10/04 11:23:04;;;;;;;11.27;5.88;;;;;;;;;;4983615;28;20417;-68
2022/10/04 11:25:56;;;;;;;9.68;5.30;;;;;;;;;;4985145;28;20058;-68
2022/10/04 11:28:27;;;;;;;15.32;4.93;;;;;;;;;;4984566;28;20050;-68
2022/10/04 11:31:05;;;;;;;8.90;4.32;;;;;;;;;;4980749;28;20042;-68
2022/10/04 11:33:59;;;;;;;9.35;4.07;;;;;;;;;;4984596;28;20053;-68
2022/10/04 11:36:30;;;;;;;8.98;4.47;;;;;;;;;;4983958;28;20050;-68
2022/10/04 11:39:14;;;;;;;10.50;5.22;;;;;;;;;;4984696;28;20129;-68
2022/10/04 11:41:55;;;;;;;9.57;5.05;;;;;;;;;;4983514;28;20030;-68
2022/10/04 11:44:25;;;;;;;11.90;4.65;;;;;;;;;;4984113;28;20141;-68
2022/10/04 11:47:20;;;;;;;11.90;6.63;;;;;;;;;;4984469;28;20058;-68
2022/10/04 11:50:19;;;;;;;13.27;6.57;;;;;;;;;;4984115;28;20109;-69
2022/10/04 11:53:24;;;;;;;15.50;7.03;;;;;;;;;;4983927;28;20050;-68
2022/10/04 11:56:20;;;;;;;15.20;7.18;;;;;;;;;;4985403;28;20051;-68
2022/10/04 11:58:45;;;;;;;11.02;6.07;;;;;;;;;;4987159;28;20092;-71
2022/10/04 12:01:13;;;;;;;15.20;6.65;;;;;;;;;;4988340;28;20038;-69
2022/10/04 12:04:20;;;;;;;13.18;5.97;;;;;;;;;;4987020;28;20460;-69
2022/10/04 12:07:21;;;;;;;12.75;5.80;;;;;;;;;;4986025;28;20472;-68
2022/10/04 12:10:08;;;;;;;8.60;5.63;;;;;;;;;;4991024;28;20050;-69
2022/10/04 12:12:36;;;;;;;10.88;5.70;;;;;;;;;;4989469;28;20062;-69
2022/10/04 12:15:08;;;;;;;7.75;5.18;;;;;;;;;;4986858;28;20058;-69
2022/10/04 12:17:43;;;;;;;12.32;5.40;;;;;;;;;;4988771;28;20034;-68
2022/10/04 12:20:20;;;;;;;10.45;5.47;;;;;;;;;;4990144;28;20030;-69
2022/10/04 12:23:04;;;;;;;10.57;4.53;;;;;;;;;;4986695;28;20065;-68
2022/10/04 12:25:46;;;;;;;8.68;4.28;;;;;;;;;;4991992;28;20104;-68
2022/10/04 12:28:34;;;;;;;9.55;4.13;;;;;;;;;;4986432;28;20066;-68
2022/10/04 12:31:33;;;;;;;12.52;4.35;;;;;;;;;;4985248;28;20077;-68
2022/10/04 12:34:14;;;;;;;7.35;3.80;;;;;;;;;;4968078;28;20061;-69
2022/10/04 12:37:04;;;;;;;7.38;3.65;;;;;;;;;;4984141;28;20046;-69
2022/10/04 12:39:29;;;;;;;8.48;3.60;;;;;;;;;;4980256;28;20057;-68
2022/10/04 12:42:18;;;;;;;6.43;3.40;;;;;;;;;;4979988;28;20583;-69
2022/10/04 12:45:11;;;;;;;6.80;3.78;;;;;;;;;;4936695;28;20080;-68
2022/10/04 12:47:51;;;;;;;9.27;4.25;;;;;;;;;;4981170;28;20030;-68
2022/10/04 12:50:44;;;;;;;6.70;3.80;;;;;;;;;;4982026;28;20393;-68
2022/10/04 12:53:21;;;;;;;9.65;4.63;;;;;;;;;;4984739;28;20389;-67
2022/10/04 12:56:02;;;;;;;9.70;4.35;;;;;;;;;;4989364;28;20050;-68
2022/10/04 12:58:58;;;;;;;8.75;3.90;;;;;;;;;;4981504;28;20054;-69
2022/10/04 13:01:56;;;;;;;8.23;3.70;;;;;;;;;;4963571;28;20053;-69
2022/10/04 13:04:30;;;;;;;16.77;4.40;;;;;;;;;;4940124;28;20058;-68
2022/10/04 13:07:33;;;;;;;8.15;3.95;;;;;;;;;;4979001;28;20498;-70
2022/10/04 13:10:34;;;;;;;16.55;3.95;;;;;;;;;;4964543;28;20374;-68
2022/10/04 13:13:35;;;;;;;7.80;3.17;;;;;;;;;;4975740;28;20108;-68
2022/10/04 13:16:18;;;;;;;6.82;3.80;;;;;;;;;;4980014;28;20052;-68
2022/10/04 13:19:15;;;;;;;4.88;3.05;;;;;;;;;;4964910;28;20516;-65
2022/10/04 13:22:33;;;;;;;7.65;3.75;;;;;;;;;;4978658;28;20047;-68
2022/10/04 13:25:17;;;;;;;5.18;3.53;;;;;;;;;;4960656;28;20133;-66
2022/10/04 13:28:12;;;;;;;8.30;3.08;;;;;;;;;;4983342;28;20136;-68
2022/10/04 13:30:47;;;;;;;10.00;3.45;;;;;;;;;;4958929;28;20057;-68
2022/10/04 13:33:42;;;;;;;7.22;3.47;;;;;;;;;;4978687;28;20104;-68
2022/10/04 13:36:17;;;;;;;9.30;3.50;;;;;;;;;;4980094;28;20068;-69
2022/10/04 13:39:06;;;;;;;8.68;3.92;;;;;;;;;;4980921;28;20038;-68
2022/10/04 13:41:56;;;;;;;5.38;3.05;;;;;;;;;;4985400;28;20042;-68
2022/10/04 13:44:30;;;;;;;7.78;3.58;;;;;;;;;;4981901;28;20669;-68
2022/10/04 13:47:14;;;;;;;6.15;3.60;;;;;;;;;;4979335;28;20122;-68
2022/10/04 13:50:07;;;;;;;9.02;3.30;;;;;;;;;;4986234;28;20506;-71
2022/10/04 13:58:57;;;;;;;9.70;3.22;;;;;;;;;;4980245;28;20037;-70
2022/10/04 14:01:47;;;;;;;6.38;3.30;;;;;;;;;;4977320;28;20589;-70
2022/10/04 14:04:34;;;;;;;8.63;2.90;;;;;;;;;;4981733;28;20808;-69
2022/10/04 14:07:21;;;;;;;8.55;4.60;;;;;;;;;;4963734;28;20054;-69
2022/10/04 14:10:25;;;;;;;9.52;3.40;;;;;;;;;;4977509;28;20050;-69
2022/10/04 14:13:09;;;;;;;8.77;3.40;;;;;;;;;;4981788;28;20046;-69
2022/10/04 14:16:00;;;;;;;8.55;3.38;;;;;;;;;;4981469;28;20054;-68
2022/10/04 14:18:28;;;;;;;7.70;3.03;;;;;;;;;;4980275;28;20093;-69
2022/10/04 14:21:05;;;;;;;7.20;3.05;;;;;;;;;;4977280;28;20070;-69
2022/10/04 14:23:34;;;;;;;8.02;3.10;;;;;;;;;;4983504;28;20137;-68
2022/10/04 14:26:33;;;;;;;6.55;2.92;;;;;;;;;;4978946;28;20556;-68
2022/10/04 14:29:27;;;;;;;8.38;2.80;;;;;;;;;;4982858;28;20057;-68
2022/10/04 14:32:14;;;;;;;6.97;3.03;;;;;;;;;;4980301;28;20534;-68
2022/10/04 14:34:46;;;;;;;8.35;3.25;;;;;;;;;;4977532;28;20054;-68
2022/10/04 14:37:49;;;;;;;6.17;3.57;;;;;;;;;;4978749;28;20101;-68
2022/10/04 14:40:38;;;;;;;9.38;3.55;;;;;;;;;;4975169;28;20289;-70
2022/10/04 14:43:46;;;;;;;8.88;3.90;;;;;;;;;;4978730;28;20405;-68
2022/10/04 14:46:55;;;;;;;8.35;3.50;;;;;;;;;;4978541;28;20054;-68
2022/10/04 14:49:46;;;;;;;7.35;3.22;;;;;;;;;;4979540;28;20043;-69
2022/10/04 14:52:42;;;;;;;8.45;4.07;;;;;;;;;;4983295;28;20042;-68
2022/10/04 14:55:12;;;;;;;6.57;3.50;;;;;;;;;;4982286;28;20537;-67
2022/10/04 14:58:09;;;;;;;5.75;3.50;;;;;;;;;;4978965;28;20052;-67
2022/10/04 15:00:54;;;;;;;7.90;3.60;;;;;;;;;;4943250;28;20412;-68
2022/10/04 15:03:35;;;;;;;8.18;3.80;;;;;;;;;;4977201;28;20137;-69
2022/10/04 15:06:12;;;;;;;10.90;5.72;;;;;;;;;;4977090;28;20053;-60
2022/10/04 15:09:19;;;;;;;8.88;4.72;;;;;;;;;;4980660;28;20035;-62
2022/10/04 15:11:46;;;;;;;10.23;4.30;;;;;;;;;;4939912;28;20061;-61
2022/10/04 15:14:41;;;;;;;11.23;4.60;;;;;;;;;;4979950;28;20047;-61
2022/10/04 15:17:29;;;;;;;9.18;3.92;;;;;;;;;;4982567;28;20069;-60
2022/10/04 15:19:58;;;;;;;7.18;3.80;;;;;;;;;;4979766;28;20042;-60
2022/10/04 15:22:37;;;;;;;7.97;4.15;;;;;;;;;;4977695;28;20093;-61
2022/10/04 15:25:40;;;;;;;9.65;4.38;;;;;;;;;;4980307;28;20064;-60
2022/10/04 15:28:27;;;;;;;11.52;5.43;;;;;;;;;;4982176;28;20440;-60
2022/10/04 15:31:16;;;;;;;12.88;5.82;;;;;;;;;;4979648;28;20131;-60
2022/10/04 15:34:00;;;;;;;10.75;5.10;;;;;;;;;;4989422;28;20058;-60
2022/10/04 15:36:55;;;;;;;13.85;6.13;;;;;;;;;;4981861;28;20054;-60
2022/10/04 15:39:38;;;;;;;7.75;4.78;;;;;;;;;;4985220;28;20453;-60
2022/10/04 15:42:28;;;;;;;15.38;5.55;;;;;;;;;;4966742;28;20046;-62
2022/10/04 15:45:08;;;;;;;10.50;5.18;;;;;;;;;;4982065;28;20050;-60
2022/10/04 15:48:00;;;;;;;9.10;5.35;;;;;;;;;;4983297;28;20405;-62
2022/10/04 15:50:56;;;;;;;9.05;5.03;;;;;;;;;;4987617;28;20088;-61
2022/10/04 15:53:45;;;;;;;8.70;5.35;;;;;;;;;;4981467;28;20131;-63
2022/10/04 15:56:32;;;;;;;6.32;4.28;;;;;;;;;;4983578;28;20133;-60
2022/10/04 15:59:13;;;;;;;12.45;5.13;;;;;;;;;;4981729;28;20402;-61
2022/10/04 16:01:44;;;;;;;12.98;5.80;;;;;;;;;;4981351;28;20057;-61
2022/10/04 16:04:43;;;;;;;12.00;5.30;;;;;;;;;;4983247;28;20166;-61